sensor_id;sensor_type;location;lat;lon;timestamp;P1;durP1;ratioP1;P2;durP2;ratioP2
16115;SDS011;8162;47.104;15.432;2023-03-21T00:01:27;2.67;;;2.40;;
16115;SDS011;8162;47.104;15.432;2023-03-21T00:04:28;7.47;;;5.03;;
16115;SDS011;8162;47.104;15.432;2023-03-21T00:07:29;7.20;;;6.50;;
16115;SDS011;8162;47.104;15.432;2023-03-21T00:10:30;14.63;;;13.20;;
16115;SDS011;8162;47.104;15.432;2023-03-21T00:13:32;14.90;;;12.90;;
16115;SDS011;8162;47.104;15.432;2023-03-21T00:16:33;15.23;;;13.63;;
16115;SDS011;8162;47.104;15.432;2023-03-21T00:19:35;10.00;;;9.10;;
16115;SDS011;8162;47.104;15.432;2023-03-21T00:22:37;10.77;;;9.77;;
16115;SDS011;8162;47.104;15.432;2023-03-21T00:25:38;10.90;;;9.80;;
16115;SDS011;8162;47.104;15.432;2023-03-21T00:28:40;11.23;;;10.03;;
16115;SDS011;8162;47.104;15.432;2023-03-21T00:31:41;9.97;;;7.60;;
16115;SDS011;8162;47.104;15.432;2023-03-21T00:34:42;10.70;;;8.23;;
16115;SDS011;8162;47.104;15.432;2023-03-21T00:37:43;7.37;;;6.17;;
16115;SDS011;8162;47.104;15.432;2023-03-21T00:40:45;9.47;;;6.53;;
16115;SDS011;8162;47.104;15.432;2023-03-21T00:43:46;10.27;;;7.00;;
16115;SDS011;8162;47.104;15.432;2023-03-21T00:46:47;12.17;;;7.47;;
16115;SDS011;8162;47.104;15.432;2023-03-21T00:49:48;12.27;;;6.80;;
16115;SDS011;8162;47.104;15.432;2023-03-21T00:52:49;14.40;;;7.90;;
16115;SDS011;8162;47.104;15.432;2023-03-21T00:55:50;15.37;;;8.73;;
16115;SDS011;8162;47.104;15.432;2023-03-21T00:58:51;10.80;;;6.60;;
16115;SDS011;8162;47.104;15.432;2023-03-21T01:01:52;11.30;;;6.20;;
16115;SDS011;8162;47.104;15.432;2023-03-21T01:04:53;8.37;;;5.37;;
16115;SDS011;8162;47.104;15.432;2023-03-21T01:07:54;9.60;;;5.03;;
16115;SDS011;8162;47.104;15.432;2023-03-21T01:10:59;5.10;;;3.10;;
16115;SDS011;8162;47.104;15.432;2023-03-21T01:14:00;3.60;;;2.53;;
16115;SDS011;8162;47.104;15.432;2023-03-21T01:17:02;3.03;;;2.73;;
16115;SDS011;8162;47.104;15.432;2023-03-21T01:20:03;3.77;;;2.57;;
16115;SDS011;8162;47.104;15.432;2023-03-21T01:23:05;2.97;;;2.40;;
16115;SDS011;8162;47.104;15.432;2023-03-21T01:26:07;4.10;;;2.13;;
16115;SDS011;8162;47.104;15.432;2023-03-21T01:29:08;4.17;;;2.30;;
16115;SDS011;8162;47.104;15.432;2023-03-21T01:32:09;3.30;;;2.50;;
16115;SDS011;8162;47.104;15.432;2023-03-21T01:35:10;4.53;;;2.30;;
16115;SDS011;8162;47.104;15.432;2023-03-21T01:38:11;3.97;;;2.37;;
16115;SDS011;8162;47.104;15.432;2023-03-21T01:41:32;5.93;;;2.80;;
16115;SDS011;8162;47.104;15.432;2023-03-21T01:44:50;13.47;;;2.73;;
16115;SDS011;8162;47.104;15.432;2023-03-21T01:47:51;4.40;;;2.47;;
16115;SDS011;8162;47.104;15.432;2023-03-21T01:50:52;3.40;;;2.17;;
16115;SDS011;8162;47.104;15.432;2023-03-21T01:53:54;3.83;;;2.07;;
16115;SDS011;8162;47.104;15.432;2023-03-21T01:56:55;4.70;;;2.53;;
16115;SDS011;8162;47.104;15.432;2023-03-21T01:59:58;3.40;;;2.10;;
16115;SDS011;8162;47.104;15.432;2023-03-21T02:03:11;3.10;;;2.37;;
16115;SDS011;8162;47.104;15.432;2023-03-21T02:06:21;2.40;;;2.13;;
16115;SDS011;8162;47.104;15.432;2023-03-21T02:09:30;3.67;;;2.10;;
16115;SDS011;8162;47.104;15.432;2023-03-21T02:12:32;2.70;;;2.23;;
16115;SDS011;8162;47.104;15.432;2023-03-21T02:15:37;2.43;;;2.00;;
16115;SDS011;8162;47.104;15.432;2023-03-21T02:31:21;4.07;;;2.07;;
16115;SDS011;8162;47.104;15.432;2023-03-21T02:37:47;2.47;;;2.27;;
16115;SDS011;8162;47.104;15.432;2023-03-21T02:41:02;2.37;;;1.90;;
16115;SDS011;8162;47.104;15.432;2023-03-21T02:44:06;2.97;;;2.07;;
16115;SDS011;8162;47.104;15.432;2023-03-21T02:47:12;2.57;;;1.93;;
16115;SDS011;8162;47.104;15.432;2023-03-21T02:50:18;3.37;;;1.93;;
16115;SDS011;8162;47.104;15.432;2023-03-21T02:53:23;3.53;;;1.93;;
16115;SDS011;8162;47.104;15.432;2023-03-21T02:56:25;2.97;;;2.30;;
16115;SDS011;8162;47.104;15.432;2023-03-21T02:59:27;3.47;;;2.50;;
16115;SDS011;8162;47.104;15.432;2023-03-21T03:02:28;2.47;;;1.80;;
16115;SDS011;8162;47.104;15.432;2023-03-21T03:05:30;2.43;;;2.07;;
16115;SDS011;8162;47.104;15.432;2023-03-21T03:11:42;3.00;;;2.23;;
16115;SDS011;8162;47.104;15.432;2023-03-21T03:14:49;3.20;;;2.30;;
16115;SDS011;8162;47.104;15.432;2023-03-21T03:27:09;2.83;;;2.20;;
16115;SDS011;8162;47.104;15.432;2023-03-21T03:30:14;3.47;;;2.20;;
16115;SDS011;8162;47.104;15.432;2023-03-21T03:33:15;2.73;;;2.40;;
16115;SDS011;8162;47.104;15.432;2023-03-21T03:36:27;2.43;;;2.10;;
16115;SDS011;8162;47.104;15.432;2023-03-21T03:39:32;3.10;;;2.37;;
16115;SDS011;8162;47.104;15.432;2023-03-21T03:42:48;2.47;;;2.10;;
16115;SDS011;8162;47.104;15.432;2023-03-21T03:45:57;2.70;;;2.13;;
16115;SDS011;8162;47.104;15.432;2023-03-21T03:49:00;3.77;;;2.40;;
16115;SDS011;8162;47.104;15.432;2023-03-21T03:52:09;2.77;;;1.97;;
16115;SDS011;8162;47.104;15.432;2023-03-21T03:55:12;2.60;;;2.30;;
16115;SDS011;8162;47.104;15.432;2023-03-21T03:58:18;4.23;;;2.13;;
16115;SDS011;8162;47.104;15.432;2023-03-21T04:01:19;2.30;;;1.90;;
16115;SDS011;8162;47.104;15.432;2023-03-21T04:04:21;2.60;;;2.40;;
16115;SDS011;8162;47.104;15.432;2023-03-21T04:07:27;2.60;;;2.20;;
16115;SDS011;8162;47.104;15.432;2023-03-21T04:10:28;3.10;;;2.20;;
16115;SDS011;8162;47.104;15.432;2023-03-21T04:13:29;2.63;;;2.30;;
16115;SDS011;8162;47.104;15.432;2023-03-21T04:16:30;4.93;;;2.10;;
16115;SDS011;8162;47.104;15.432;2023-03-21T04:19:31;3.03;;;2.57;;
16115;SDS011;8162;47.104;15.432;2023-03-21T04:22:32;2.90;;;2.10;;
16115;SDS011;8162;47.104;15.432;2023-03-21T04:25:34;5.23;;;2.40;;
16115;SDS011;8162;47.104;15.432;2023-03-21T04:28:35;2.80;;;2.10;;
16115;SDS011;8162;47.104;15.432;2023-03-21T04:31:36;5.33;;;2.47;;
16115;SDS011;8162;47.104;15.432;2023-03-21T04:34:41;4.63;;;2.30;;
16115;SDS011;8162;47.104;15.432;2023-03-21T04:37:43;3.47;;;2.23;;
16115;SDS011;8162;47.104;15.432;2023-03-21T04:40:44;2.77;;;2.43;;
16115;SDS011;8162;47.104;15.432;2023-03-21T04:43:45;2.97;;;2.20;;
16115;SDS011;8162;47.104;15.432;2023-03-21T04:46:46;3.17;;;2.50;;
16115;SDS011;8162;47.104;15.432;2023-03-21T04:49:47;6.03;;;3.80;;
16115;SDS011;8162;47.104;15.432;2023-03-21T04:52:48;4.67;;;3.40;;
16115;SDS011;8162;47.104;15.432;2023-03-21T04:55:49;4.90;;;2.67;;
16115;SDS011;8162;47.104;15.432;2023-03-21T04:58:50;2.90;;;2.03;;
16115;SDS011;8162;47.104;15.432;2023-03-21T05:01:51;4.03;;;2.23;;
16115;SDS011;8162;47.104;15.432;2023-03-21T05:04:55;5.37;;;2.23;;
16115;SDS011;8162;47.104;15.432;2023-03-21T05:07:57;4.80;;;2.60;;
16115;SDS011;8162;47.104;15.432;2023-03-21T05:10:59;3.40;;;2.37;;
16115;SDS011;8162;47.104;15.432;2023-03-21T05:14:00;3.40;;;2.30;;
16115;SDS011;8162;47.104;15.432;2023-03-21T05:17:01;4.60;;;2.60;;
16115;SDS011;8162;47.104;15.432;2023-03-21T05:20:04;3.30;;;2.60;;
16115;SDS011;8162;47.104;15.432;2023-03-21T05:23:11;3.07;;;2.50;;
16115;SDS011;8162;47.104;15.432;2023-03-21T05:26:12;4.50;;;2.67;;
16115;SDS011;8162;47.104;15.432;2023-03-21T05:29:13;4.13;;;2.20;;
16115;SDS011;8162;47.104;15.432;2023-03-21T05:32:14;5.77;;;2.50;;
16115;SDS011;8162;47.104;15.432;2023-03-21T05:35:15;2.90;;;2.50;;
16115;SDS011;8162;47.104;15.432;2023-03-21T05:38:16;4.17;;;2.50;;
16115;SDS011;8162;47.104;15.432;2023-03-21T05:41:17;3.97;;;2.63;;
16115;SDS011;8162;47.104;15.432;2023-03-21T05:44:20;4.70;;;3.27;;
16115;SDS011;8162;47.104;15.432;2023-03-21T05:47:21;4.73;;;2.90;;
16115;SDS011;8162;47.104;15.432;2023-03-21T05:50:22;4.07;;;3.47;;
16115;SDS011;8162;47.104;15.432;2023-03-21T05:53:23;6.47;;;3.10;;
16115;SDS011;8162;47.104;15.432;2023-03-21T05:56:24;5.83;;;3.50;;
16115;SDS011;8162;47.104;15.432;2023-03-21T05:59:25;5.90;;;3.43;;
16115;SDS011;8162;47.104;15.432;2023-03-21T06:02:26;4.50;;;3.10;;
16115;SDS011;8162;47.104;15.432;2023-03-21T06:05:27;5.17;;;3.00;;
16115;SDS011;8162;47.104;15.432;2023-03-21T06:08:29;3.67;;;2.53;;
16115;SDS011;8162;47.104;15.432;2023-03-21T06:11:31;6.10;;;4.07;;
16115;SDS011;8162;47.104;15.432;2023-03-21T06:14:33;4.67;;;3.07;;
16115;SDS011;8162;47.104;15.432;2023-03-21T06:17:34;3.67;;;2.40;;
16115;SDS011;8162;47.104;15.432;2023-03-21T06:20:35;5.07;;;3.63;;
16115;SDS011;8162;47.104;15.432;2023-03-21T06:23:36;6.60;;;3.50;;
16115;SDS011;8162;47.104;15.432;2023-03-21T06:26:38;4.27;;;3.20;;
16115;SDS011;8162;47.104;15.432;2023-03-21T06:29:41;5.20;;;3.07;;
16115;SDS011;8162;47.104;15.432;2023-03-21T06:32:42;4.13;;;3.10;;
16115;SDS011;8162;47.104;15.432;2023-03-21T06:35:43;4.57;;;2.57;;
16115;SDS011;8162;47.104;15.432;2023-03-21T06:38:44;3.67;;;3.17;;
16115;SDS011;8162;47.104;15.432;2023-03-21T06:41:46;4.07;;;2.87;;
16115;SDS011;8162;47.104;15.432;2023-03-21T06:44:47;3.27;;;2.93;;
16115;SDS011;8162;47.104;15.432;2023-03-21T06:47:48;4.20;;;2.50;;
16115;SDS011;8162;47.104;15.432;2023-03-21T06:50:49;5.20;;;2.97;;
16115;SDS011;8162;47.104;15.432;2023-03-21T06:53:50;4.60;;;2.97;;
16115;SDS011;8162;47.104;15.432;2023-03-21T06:56:51;4.13;;;2.80;;
16115;SDS011;8162;47.104;15.432;2023-03-21T06:59:53;3.50;;;2.87;;
16115;SDS011;8162;47.104;15.432;2023-03-21T07:02:54;4.10;;;3.70;;
16115;SDS011;8162;47.104;15.432;2023-03-21T07:05:55;3.90;;;3.13;;
16115;SDS011;8162;47.104;15.432;2023-03-21T07:08:57;3.00;;;2.70;;
16115;SDS011;8162;47.104;15.432;2023-03-21T07:11:58;4.67;;;2.93;;
16115;SDS011;8162;47.104;15.432;2023-03-21T07:14:59;4.17;;;3.07;;
16115;SDS011;8162;47.104;15.432;2023-03-21T07:18:00;4.27;;;3.20;;
16115;SDS011;8162;47.104;15.432;2023-03-21T07:21:01;5.20;;;2.93;;
16115;SDS011;8162;47.104;15.432;2023-03-21T07:24:02;5.20;;;3.20;;
16115;SDS011;8162;47.104;15.432;2023-03-21T07:27:03;4.07;;;3.00;;
16115;SDS011;8162;47.104;15.432;2023-03-21T07:30:04;6.67;;;2.80;;
16115;SDS011;8162;47.104;15.432;2023-03-21T07:33:06;4.50;;;3.30;;
16115;SDS011;8162;47.104;15.432;2023-03-21T07:36:14;4.80;;;2.67;;
16115;SDS011;8162;47.104;15.432;2023-03-21T07:39:15;4.50;;;3.20;;
16115;SDS011;8162;47.104;15.432;2023-03-21T07:42:16;4.13;;;3.00;;
16115;SDS011;8162;47.104;15.432;2023-03-21T07:45:18;3.30;;;3.00;;
16115;SDS011;8162;47.104;15.432;2023-03-21T07:48:24;5.77;;;3.13;;
16115;SDS011;8162;47.104;15.432;2023-03-21T07:51:25;5.60;;;3.10;;
16115;SDS011;8162;47.104;15.432;2023-03-21T07:54:26;3.77;;;2.70;;
16115;SDS011;8162;47.104;15.432;2023-03-21T07:57:27;4.00;;;2.97;;
16115;SDS011;8162;47.104;15.432;2023-03-21T08:00:28;4.77;;;2.67;;
16115;SDS011;8162;47.104;15.432;2023-03-21T08:03:30;7.57;;;2.90;;
16115;SDS011;8162;47.104;15.432;2023-03-21T08:06:32;6.03;;;2.70;;
16115;SDS011;8162;47.104;15.432;2023-03-21T08:09:33;2.80;;;2.50;;
16115;SDS011;8162;47.104;15.432;2023-03-21T08:12:35;5.77;;;2.53;;
16115;SDS011;8162;47.104;15.432;2023-03-21T08:15:36;3.40;;;2.27;;
16115;SDS011;8162;47.104;15.432;2023-03-21T08:18:38;3.20;;;2.90;;
16115;SDS011;8162;47.104;15.432;2023-03-21T08:21:39;4.27;;;2.30;;
16115;SDS011;8162;47.104;15.432;2023-03-21T08:24:40;2.63;;;2.30;;
16115;SDS011;8162;47.104;15.432;2023-03-21T08:27:42;2.67;;;2.10;;
16115;SDS011;8162;47.104;15.432;2023-03-21T08:30:43;2.40;;;2.17;;
16115;SDS011;8162;47.104;15.432;2023-03-21T08:33:44;3.23;;;2.57;;
16115;SDS011;8162;47.104;15.432;2023-03-21T08:36:46;1.90;;;1.63;;
16115;SDS011;8162;47.104;15.432;2023-03-21T08:39:47;3.83;;;1.93;;
16115;SDS011;8162;47.104;15.432;2023-03-21T08:42:48;2.77;;;1.60;;
16115;SDS011;8162;47.104;15.432;2023-03-21T08:45:49;1.90;;;1.60;;
16115;SDS011;8162;47.104;15.432;2023-03-21T08:48:50;2.50;;;1.57;;
16115;SDS011;8162;47.104;15.432;2023-03-21T08:51:54;2.83;;;1.43;;
16115;SDS011;8162;47.104;15.432;2023-03-21T08:54:55;2.23;;;1.73;;
16115;SDS011;8162;47.104;15.432;2023-03-21T08:57:56;2.50;;;2.07;;
16115;SDS011;8162;47.104;15.432;2023-03-21T09:00:57;3.13;;;1.80;;
16115;SDS011;8162;47.104;15.432;2023-03-21T09:03:58;5.30;;;2.40;;
16115;SDS011;8162;47.104;15.432;2023-03-21T09:07:00;2.83;;;1.30;;
16115;SDS011;8162;47.104;15.432;2023-03-21T09:10:04;1.83;;;1.13;;
16115;SDS011;8162;47.104;15.432;2023-03-21T09:13:05;1.63;;;1.10;;
16115;SDS011;8162;47.104;15.432;2023-03-21T09:16:07;1.17;;;0.90;;
16115;SDS011;8162;47.104;15.432;2023-03-21T09:19:08;1.10;;;1.00;;
16115;SDS011;8162;47.104;15.432;2023-03-21T09:22:09;0.60;;;0.50;;
16115;SDS011;8162;47.104;15.432;2023-03-21T09:25:16;1.13;;;1.03;;
16115;SDS011;8162;47.104;15.432;2023-03-21T09:28:18;0.80;;;0.77;;
16115;SDS011;8162;47.104;15.432;2023-03-21T09:31:20;2.00;;;0.80;;
16115;SDS011;8162;47.104;15.432;2023-03-21T09:34:22;1.93;;;0.80;;
16115;SDS011;8162;47.104;15.432;2023-03-21T09:37:23;1.17;;;0.90;;
16115;SDS011;8162;47.104;15.432;2023-03-21T09:49:52;2.40;;;0.93;;
16115;SDS011;8162;47.104;15.432;2023-03-21T09:53:07;1.87;;;0.90;;
16115;SDS011;8162;47.104;15.432;2023-03-21T09:56:09;1.03;;;0.80;;
16115;SDS011;8162;47.104;15.432;2023-03-21T09:59:47;2.23;;;1.90;;
16115;SDS011;8162;47.104;15.432;2023-03-21T10:02:42;6.10;;;2.37;;
16115;SDS011;8162;47.104;15.432;2023-03-21T10:05:49;2.60;;;1.30;;
16115;SDS011;8162;47.104;15.432;2023-03-21T10:08:51;2.67;;;1.50;;
16115;SDS011;8162;47.104;15.432;2023-03-21T10:11:54;2.83;;;1.43;;
16115;SDS011;8162;47.104;15.432;2023-03-21T10:14:57;2.67;;;1.70;;
16115;SDS011;8162;47.104;15.432;2023-03-21T10:18:01;2.90;;;1.63;;
16115;SDS011;8162;47.104;15.432;2023-03-21T10:21:02;2.80;;;1.50;;
16115;SDS011;8162;47.104;15.432;2023-03-21T10:24:04;2.77;;;1.50;;
16115;SDS011;8162;47.104;15.432;2023-03-21T10:27:06;1.83;;;1.30;;
16115;SDS011;8162;47.104;15.432;2023-03-21T10:30:16;3.60;;;1.00;;
16115;SDS011;8162;47.104;15.432;2023-03-21T10:33:21;2.80;;;1.40;;
16115;SDS011;8162;47.104;15.432;2023-03-21T10:36:24;2.67;;;1.57;;
16115;SDS011;8162;47.104;15.432;2023-03-21T10:39:27;2.23;;;1.47;;
16115;SDS011;8162;47.104;15.432;2023-03-21T10:42:31;1.93;;;1.30;;
16115;SDS011;8162;47.104;15.432;2023-03-21T10:45:34;1.57;;;1.30;;
16115;SDS011;8162;47.104;15.432;2023-03-21T10:48:36;2.40;;;1.43;;
16115;SDS011;8162;47.104;15.432;2023-03-21T10:51:37;3.97;;;1.53;;
16115;SDS011;8162;47.104;15.432;2023-03-21T10:54:39;3.47;;;1.53;;
16115;SDS011;8162;47.104;15.432;2023-03-21T10:57:40;2.53;;;1.60;;
16115;SDS011;8162;47.104;15.432;2023-03-21T11:00:41;1.70;;;1.40;;
16115;SDS011;8162;47.104;15.432;2023-03-21T11:03:44;1.43;;;1.27;;
16115;SDS011;8162;47.104;15.432;2023-03-21T11:06:58;2.77;;;1.50;;
16115;SDS011;8162;47.104;15.432;2023-03-21T11:10:06;2.53;;;1.40;;
16115;SDS011;8162;47.104;15.432;2023-03-21T11:13:16;3.57;;;1.33;;
16115;SDS011;8162;47.104;15.432;2023-03-21T11:16:20;2.97;;;1.13;;
16115;SDS011;8162;47.104;15.432;2023-03-21T11:19:30;1.73;;;1.30;;
16115;SDS011;8162;47.104;15.432;2023-03-21T11:22:41;1.90;;;0.93;;
16115;SDS011;8162;47.104;15.432;2023-03-21T11:25:42;1.80;;;1.20;;
16115;SDS011;8162;47.104;15.432;2023-03-21T11:28:45;1.43;;;1.10;;
16115;SDS011;8162;47.104;15.432;2023-03-21T11:31:46;3.13;;;1.00;;
16115;SDS011;8162;47.104;15.432;2023-03-21T11:34:51;1.37;;;0.80;;
16115;SDS011;8162;47.104;15.432;2023-03-21T11:37:54;1.43;;;0.83;;
16115;SDS011;8162;47.104;15.432;2023-03-21T11:40:57;1.30;;;1.00;;
16115;SDS011;8162;47.104;15.432;2023-03-21T11:43:59;0.70;;;0.70;;
16115;SDS011;8162;47.104;15.432;2023-03-21T11:47:01;1.73;;;1.00;;
16115;SDS011;8162;47.104;15.432;2023-03-21T11:50:04;1.20;;;1.07;;
16115;SDS011;8162;47.104;15.432;2023-03-21T12:05:58;1.30;;;1.20;;
16115;SDS011;8162;47.104;15.432;2023-03-21T12:18:41;1.43;;;0.80;;
16115;SDS011;8162;47.104;15.432;2023-03-21T12:25:09;1.00;;;0.90;;
16115;SDS011;8162;47.104;15.432;2023-03-21T12:28:30;1.37;;;0.90;;
16115;SDS011;8162;47.104;15.432;2023-03-21T12:44:20;1.00;;;0.90;;
16115;SDS011;8162;47.104;15.432;2023-03-21T12:47:22;1.43;;;1.10;;
16115;SDS011;8162;47.104;15.432;2023-03-21T12:50:28;1.30;;;0.90;;
16115;SDS011;8162;47.104;15.432;2023-03-21T12:56:51;1.37;;;1.17;;
16115;SDS011;8162;47.104;15.432;2023-03-21T13:03:03;1.00;;;0.90;;
16115;SDS011;8162;47.104;15.432;2023-03-21T13:06:17;0.97;;;0.83;;
16115;SDS011;8162;47.104;15.432;2023-03-21T13:09:23;1.43;;;1.00;;
16115;SDS011;8162;47.104;15.432;2023-03-21T13:22:42;0.87;;;0.80;;
16115;SDS011;8162;47.104;15.432;2023-03-21T13:25:45;1.30;;;0.90;;
16115;SDS011;8162;47.104;15.432;2023-03-21T13:28:46;2.50;;;1.00;;
16115;SDS011;8162;47.104;15.432;2023-03-21T13:31:48;1.07;;;0.90;;
16115;SDS011;8162;47.104;15.432;2023-03-21T13:34:54;1.40;;;0.87;;
16115;SDS011;8162;47.104;15.432;2023-03-21T13:41:13;0.83;;;0.60;;
16115;SDS011;8162;47.104;15.432;2023-03-21T13:44:21;2.03;;;0.90;;
16115;SDS011;8162;47.104;15.432;2023-03-21T13:54:02;1.90;;;0.90;;
16115;SDS011;8162;47.104;15.432;2023-03-21T13:57:19;0.90;;;0.77;;
16115;SDS011;8162;47.104;15.432;2023-03-21T14:00:26;1.60;;;0.90;;
16115;SDS011;8162;47.104;15.432;2023-03-21T14:03:33;3.30;;;0.80;;
16115;SDS011;8162;47.104;15.432;2023-03-21T14:06:37;0.57;;;0.57;;
16115;SDS011;8162;47.104;15.432;2023-03-21T14:09:40;0.77;;;0.75;;
16115;SDS011;8162;47.104;15.432;2023-03-21T14:12:43;0.95;;;0.70;;
16115;SDS011;8162;47.104;15.432;2023-03-21T14:15:47;0.70;;;0.70;;
16115;SDS011;8162;47.104;15.432;2023-03-21T14:18:52;1.05;;;0.90;;
16115;SDS011;8162;47.104;15.432;2023-03-21T14:21:54;1.27;;;0.80;;
16115;SDS011;8162;47.104;15.432;2023-03-21T14:24:59;0.70;;;0.70;;
16115;SDS011;8162;47.104;15.432;2023-03-21T14:28:02;1.38;;;1.02;;
16115;SDS011;8162;47.104;15.432;2023-03-21T14:31:04;2.83;;;1.40;;
16115;SDS011;8162;47.104;15.432;2023-03-21T14:34:05;3.80;;;1.00;;
16115;SDS011;8162;47.104;15.432;2023-03-21T14:37:06;3.40;;;1.00;;
16115;SDS011;8162;47.104;15.432;2023-03-21T14:40:20;1.70;;;0.80;;
16115;SDS011;8162;47.104;15.432;2023-03-21T14:43:22;2.30;;;1.00;;
16115;SDS011;8162;47.104;15.432;2023-03-21T14:46:23;2.03;;;1.00;;
16115;SDS011;8162;47.104;15.432;2023-03-21T14:49:32;2.23;;;1.20;;
16115;SDS011;8162;47.104;15.432;2023-03-21T14:52:34;1.20;;;1.10;;
16115;SDS011;8162;47.104;15.432;2023-03-21T14:55:41;2.17;;;1.50;;
16115;SDS011;8162;47.104;15.432;2023-03-21T14:58:43;2.77;;;1.30;;
16115;SDS011;8162;47.104;15.432;2023-03-21T15:01:45;1.87;;;1.20;;
16115;SDS011;8162;47.104;15.432;2023-03-21T15:04:56;1.73;;;1.00;;
16115;SDS011;8162;47.104;15.432;2023-03-21T15:07:59;1.50;;;1.03;;
16115;SDS011;8162;47.104;15.432;2023-03-21T15:11:01;1.33;;;1.00;;
16115;SDS011;8162;47.104;15.432;2023-03-21T15:14:07;1.50;;;1.10;;
16115;SDS011;8162;47.104;15.432;2023-03-21T15:17:08;0.90;;;0.90;;
16115;SDS011;8162;47.104;15.432;2023-03-21T15:20:13;1.73;;;1.20;;
16115;SDS011;8162;47.104;15.432;2023-03-21T15:23:19;2.43;;;1.10;;
16115;SDS011;8162;47.104;15.432;2023-03-21T15:26:24;1.80;;;0.87;;
16115;SDS011;8162;47.104;15.432;2023-03-21T15:29:26;1.67;;;0.90;;
16115;SDS011;8162;47.104;15.432;2023-03-21T15:32:27;2.10;;;0.90;;
16115;SDS011;8162;47.104;15.432;2023-03-21T15:38:36;1.50;;;0.90;;
16115;SDS011;8162;47.104;15.432;2023-03-21T15:42:00;0.90;;;0.90;;
16115;SDS011;8162;47.104;15.432;2023-03-21T15:45:07;0.70;;;0.60;;
16115;SDS011;8162;47.104;15.432;2023-03-21T15:48:13;1.20;;;0.87;;
16115;SDS011;8162;47.104;15.432;2023-03-21T15:51:19;3.47;;;0.70;;
16115;SDS011;8162;47.104;15.432;2023-03-21T15:54:22;2.50;;;0.83;;
16115;SDS011;8162;47.104;15.432;2023-03-21T15:57:25;2.07;;;0.93;;
16115;SDS011;8162;47.104;15.432;2023-03-21T16:00:37;1.13;;;0.97;;
16115;SDS011;8162;47.104;15.432;2023-03-21T16:03:40;1.43;;;0.90;;
16115;SDS011;8162;47.104;15.432;2023-03-21T16:07:03;1.40;;;0.90;;
16115;SDS011;8162;47.104;15.432;2023-03-21T16:13:27;1.13;;;0.90;;
16115;SDS011;8162;47.104;15.432;2023-03-21T16:16:28;1.07;;;0.80;;
16115;SDS011;8162;47.104;15.432;2023-03-21T16:19:29;0.93;;;0.73;;
16115;SDS011;8162;47.104;15.432;2023-03-21T16:22:30;2.80;;;0.90;;
16115;SDS011;8162;47.104;15.432;2023-03-21T16:25:34;2.13;;;1.10;;
16115;SDS011;8162;47.104;15.432;2023-03-21T16:28:35;2.43;;;1.20;;
16115;SDS011;8162;47.104;15.432;2023-03-21T16:31:36;1.10;;;1.00;;
16115;SDS011;8162;47.104;15.432;2023-03-21T16:34:37;1.00;;;0.70;;
16115;SDS011;8162;47.104;15.432;2023-03-21T16:37:41;1.00;;;0.90;;
16115;SDS011;8162;47.104;15.432;2023-03-21T16:40:42;1.43;;;0.70;;
16115;SDS011;8162;47.104;15.432;2023-03-21T16:43:44;5.70;;;1.13;;
16115;SDS011;8162;47.104;15.432;2023-03-21T16:46:45;1.40;;;1.10;;
16115;SDS011;8162;47.104;15.432;2023-03-21T16:49:46;1.17;;;0.93;;
16115;SDS011;8162;47.104;15.432;2023-03-21T16:52:47;1.90;;;0.90;;
16115;SDS011;8162;47.104;15.432;2023-03-21T16:55:48;0.70;;;0.70;;
16115;SDS011;8162;47.104;15.432;2023-03-21T16:58:50;1.60;;;0.93;;
16115;SDS011;8162;47.104;15.432;2023-03-21T17:01:51;1.40;;;0.90;;
16115;SDS011;8162;47.104;15.432;2023-03-21T17:04:52;1.87;;;0.73;;
16115;SDS011;8162;47.104;15.432;2023-03-21T17:07:53;1.27;;;1.00;;
16115;SDS011;8162;47.104;15.432;2023-03-21T17:10:54;0.73;;;0.73;;
16115;SDS011;8162;47.104;15.432;2023-03-21T17:13:58;2.43;;;1.00;;
16115;SDS011;8162;47.104;15.432;2023-03-21T17:16:59;1.00;;;0.80;;
16115;SDS011;8162;47.104;15.432;2023-03-21T17:20:00;3.43;;;1.30;;
16115;SDS011;8162;47.104;15.432;2023-03-21T17:23:02;1.53;;;0.93;;
16115;SDS011;8162;47.104;15.432;2023-03-21T17:26:04;2.37;;;1.00;;
16115;SDS011;8162;47.104;15.432;2023-03-21T17:29:10;2.53;;;1.23;;
16115;SDS011;8162;47.104;15.432;2023-03-21T17:32:12;1.13;;;1.00;;
16115;SDS011;8162;47.104;15.432;2023-03-21T17:35:14;2.13;;;1.00;;
16115;SDS011;8162;47.104;15.432;2023-03-21T17:38:16;1.50;;;0.93;;
16115;SDS011;8162;47.104;15.432;2023-03-21T17:41:18;1.60;;;1.07;;
16115;SDS011;8162;47.104;15.432;2023-03-21T17:44:20;2.73;;;1.53;;
16115;SDS011;8162;47.104;15.432;2023-03-21T17:47:21;2.70;;;1.20;;
16115;SDS011;8162;47.104;15.432;2023-03-21T17:50:25;2.13;;;1.00;;
16115;SDS011;8162;47.104;15.432;2023-03-21T17:53:27;4.03;;;1.00;;
16115;SDS011;8162;47.104;15.432;2023-03-21T17:56:29;1.80;;;1.20;;
16115;SDS011;8162;47.104;15.432;2023-03-21T17:59:30;1.33;;;1.17;;
16115;SDS011;8162;47.104;15.432;2023-03-21T18:02:31;1.20;;;0.90;;
16115;SDS011;8162;47.104;15.432;2023-03-21T18:05:33;1.00;;;0.90;;
16115;SDS011;8162;47.104;15.432;2023-03-21T18:08:34;3.10;;;1.20;;
16115;SDS011;8162;47.104;15.432;2023-03-21T18:11:36;1.80;;;1.47;;
16115;SDS011;8162;47.104;15.432;2023-03-21T18:14:40;1.37;;;1.27;;
16115;SDS011;8162;47.104;15.432;2023-03-21T18:17:41;2.87;;;1.40;;
16115;SDS011;8162;47.104;15.432;2023-03-21T18:20:43;1.97;;;1.40;;
16115;SDS011;8162;47.104;15.432;2023-03-21T18:23:44;3.37;;;1.63;;
16115;SDS011;8162;47.104;15.432;2023-03-21T18:26:47;1.40;;;1.30;;
16115;SDS011;8162;47.104;15.432;2023-03-21T18:29:49;1.73;;;1.60;;
16115;SDS011;8162;47.104;15.432;2023-03-21T18:32:51;3.40;;;1.80;;
16115;SDS011;8162;47.104;15.432;2023-03-21T18:35:52;3.57;;;1.90;;
16115;SDS011;8162;47.104;15.432;2023-03-21T18:38:53;2.13;;;1.90;;
16115;SDS011;8162;47.104;15.432;2023-03-21T18:41:55;2.27;;;1.83;;
16115;SDS011;8162;47.104;15.432;2023-03-21T18:45:00;2.00;;;1.80;;
16115;SDS011;8162;47.104;15.432;2023-03-21T18:48:01;4.60;;;1.80;;
16115;SDS011;8162;47.104;15.432;2023-03-21T18:51:04;3.43;;;1.80;;
16115;SDS011;8162;47.104;15.432;2023-03-21T18:54:06;5.13;;;1.93;;
16115;SDS011;8162;47.104;15.432;2023-03-21T18:57:09;2.57;;;1.70;;
16115;SDS011;8162;47.104;15.432;2023-03-21T19:00:12;2.07;;;1.60;;
16115;SDS011;8162;47.104;15.432;2023-03-21T19:03:16;3.97;;;2.03;;
16115;SDS011;8162;47.104;15.432;2023-03-21T19:06:17;3.17;;;2.27;;
16115;SDS011;8162;47.104;15.432;2023-03-21T19:09:18;4.40;;;2.57;;
16115;SDS011;8162;47.104;15.432;2023-03-21T19:12:20;3.63;;;2.20;;
16115;SDS011;8162;47.104;15.432;2023-03-21T19:15:22;6.23;;;3.10;;
16115;SDS011;8162;47.104;15.432;2023-03-21T19:18:23;4.53;;;3.27;;
16115;SDS011;8162;47.104;15.432;2023-03-21T19:21:25;7.53;;;4.63;;
16115;SDS011;8162;47.104;15.432;2023-03-21T19:24:26;5.93;;;3.90;;
16115;SDS011;8162;47.104;15.432;2023-03-21T19:27:28;8.23;;;4.30;;
16115;SDS011;8162;47.104;15.432;2023-03-21T19:30:29;5.30;;;3.60;;
16115;SDS011;8162;47.104;15.432;2023-03-21T19:33:31;4.03;;;2.83;;
16115;SDS011;8162;47.104;15.432;2023-03-21T19:36:32;3.77;;;3.17;;
16115;SDS011;8162;47.104;15.432;2023-03-21T19:39:34;4.30;;;3.30;;
16115;SDS011;8162;47.104;15.432;2023-03-21T19:42:35;7.23;;;3.27;;
16115;SDS011;8162;47.104;15.432;2023-03-21T19:45:36;7.40;;;3.60;;
16115;SDS011;8162;47.104;15.432;2023-03-21T19:48:38;5.73;;;3.67;;
16115;SDS011;8162;47.104;15.432;2023-03-21T19:51:41;5.10;;;3.60;;
16115;SDS011;8162;47.104;15.432;2023-03-21T19:54:43;3.93;;;3.37;;
16115;SDS011;8162;47.104;15.432;2023-03-21T19:57:44;5.63;;;3.47;;
16115;SDS011;8162;47.104;15.432;2023-03-21T20:00:48;7.63;;;3.40;;
16115;SDS011;8162;47.104;15.432;2023-03-21T20:03:50;5.73;;;3.33;;
16115;SDS011;8162;47.104;15.432;2023-03-21T20:06:52;6.23;;;3.17;;
16115;SDS011;8162;47.104;15.432;2023-03-21T20:09:57;4.40;;;3.47;;
16115;SDS011;8162;47.104;15.432;2023-03-21T20:12:58;5.87;;;3.53;;